Time;durP1;ratioP1;P1;durP2;ratioP2;P2;SDS_P1;SDS_P2;PMS_P1;PMS_P2;Temp;Humidity;BMP_temperature;BMP_pressure;BME280_temperature;BME280_humidity;BME280_pressure;Samples;Min_cycle;Max_cycle;Signal;HPM_P1;HPM_P2
2023/01/26 00:00:55;;;;;;;62.30;33.80;;;;;;;0.40;83.16;101435.57;83888;1259;3011648;-73
2023/01/26 00:03:28;;;;;;;60.40;34.60;;;;;;;0.42;83.06;101434.07;82551;1259;3024558;-74
2023/01/26 00:06:01;;;;;;;58.10;32.90;;;;;;;0.42;82.98;101432.17;83924;1267;3012951;-74
2023/01/26 00:08:36;;;;;;;58.60;33.10;;;;;;;0.42;83.16;101435.09;82574;1259;3025513;-74
2023/01/26 00:11:10;;;;;;;62.30;34.30;;;;;;;0.42;83.23;101433.39;82605;1260;3026419;-72
2023/01/26 00:13:43;;;;;;;61.40;34.30;;;;;;;0.40;83.09;101430.06;83930;1259;3013659;-72
2023/01/26 00:16:18;;;;;;;57.10;33.00;;;;;;;0.38;83.01;101427.10;82604;1257;3028691;-71
2023/01/26 00:18:52;;;;;;;55.80;32.50;;;;;;;0.39;83.09;101424.56;83331;1259;3011671;-71
2023/01/26 00:21:24;;;;;;;57.20;32.60;;;;;;;0.39;83.06;101418.55;83896;1256;3011466;-72
2023/01/26 00:23:59;;;;;;;62.50;35.20;;;;;;;0.43;83.18;101419.83;82570;1259;3025988;-72
2023/01/26 00:26:35;;;;;;;60.40;34.60;;;;;;;0.44;83.44;101425.89;83328;1260;3011524;-74
2023/01/26 00:29:10;;;;;;;54.80;32.60;;;;;;;0.50;83.42;101416.71;82576;1259;3025612;-74
2023/01/26 00:31:44;;;;;;;58.50;32.80;;;;;;;0.49;83.15;101412.57;83332;1260;3013487;-74
2023/01/26 00:34:17;;;;;;;59.30;33.00;;;;;;;0.47;83.22;101419.06;83877;1256;3011581;-74
2023/01/26 00:36:51;;;;;;;54.20;32.30;;;;;;;0.47;83.32;101416.48;82579;1259;3025643;-72
2023/01/26 00:39:28;;;;;;;55.30;32.40;;;;;;;0.49;83.15;101414.65;83215;1264;3011459;-73
2023/01/26 00:42:08;;;;;;;53.70;32.80;;;;;;;0.50;83.21;101412.25;83188;1256;3011305;-73
2023/01/26 00:44:45;;;;;;;56.90;33.60;;;;;;;0.50;83.19;101409.33;82581;1267;3025270;-73
2023/01/26 00:47:18;;;;;;;56.90;34.20;;;;;;;0.49;83.33;101408.47;83327;1260;3011566;-73
2023/01/26 00:49:53;;;;;;;56.80;31.10;;;;;;;0.48;83.15;101410.34;83901;1260;3011267;-72
2023/01/26 00:52:29;;;;;;;57.00;31.60;;;;;;;0.47;83.13;101404.30;82603;1254;3027368;-72
2023/01/26 00:55:05;;;;;;;53.40;31.00;;;;;;;0.48;82.97;101402.95;82553;1258;3025823;-72
2023/01/26 00:57:39;;;;;;;54.10;31.90;;;;;;;0.48;83.07;101399.00;83344;1268;3011209;-72
2023/01/26 01:00:15;;;;;;;53.60;33.20;;;;;;;0.53;83.31;101394.95;83923;1260;3013327;-74
2023/01/26 01:02:48;;;;;;;53.50;32.70;;;;;;;0.54;83.34;101397.56;82624;1260;3026100;-74
2023/01/26 01:05:19;;;;;;;56.50;32.60;;;;;;;0.50;83.09;101400.76;83927;1259;3011507;-72
2023/01/26 01:07:53;;;;;;;57.10;34.30;;;;;;;0.48;83.04;101399.86;82552;1263;3025569;-73
2023/01/26 01:10:29;;;;;;;56.30;32.30;;;;;;;0.46;83.16;101399.47;83346;1269;3011630;-72
2023/01/26 01:13:00;;;;;;;51.70;29.60;;;;;;;0.45;83.22;101401.02;83863;1268;3012876;-72
2023/01/26 01:15:32;;;;;;;50.00;31.50;;;;;;;0.46;83.22;101398.28;82568;1264;3025870;-73
2023/01/26 01:18:03;;;;;;;53.30;31.50;;;;;;;0.50;83.46;101397.15;83873;1265;3012674;-73
2023/01/26 01:20:35;;;;;;;52.10;32.00;;;;;;;0.52;83.42;101397.17;82581;1260;3026152;-73
2023/01/26 01:23:06;;;;;;;57.80;33.90;;;;;;;0.55;83.47;101392.10;83871;1269;3011454;-74
2023/01/26 01:25:38;;;;;;;54.10;33.00;;;;;;;0.57;83.40;101382.34;82623;1260;3024768;-74
2023/01/26 01:28:09;;;;;;;56.00;31.10;;;;;;;0.54;83.55;101375.59;83898;1260;3011391;-75
2023/01/26 01:30:42;;;;;;;51.30;29.70;;;;;;;0.51;83.39;101370.91;82603;1254;3026187;-71
2023/01/26 01:33:13;;;;;;;51.60;30.80;;;;;;;0.50;83.44;101366.42;83874;1259;3011449;-72
2023/01/26 01:35:53;;;;;;;50.50;31.30;;;;;;;0.51;83.30;101360.27;82573;1267;3026290;-74
2023/01/26 01:38:26;;;;;;;55.20;32.80;;;;;;;0.55;83.66;101357.92;82569;1260;3025670;-74
2023/01/26 01:40:57;;;;;;;53.20;32.10;;;;;;;0.60;83.70;101359.74;83889;1260;3011742;-74
2023/01/26 01:43:31;;;;;;;55.80;34.00;;;;;;;0.61;83.55;101352.89;82453;1261;3025513;-74
2023/01/26 01:46:03;;;;;;;54.30;33.00;;;;;;;0.60;83.57;101343.77;83875;1259;3011824;-72
2023/01/26 01:48:40;;;;;;;53.70;32.20;;;;;;;0.60;83.57;101338.27;82560;1260;3025967;-73
2023/01/26 01:51:18;;;;;;;55.10;32.20;;;;;;;0.60;83.45;101331.56;82576;1267;3026353;-73
2023/01/26 01:53:51;;;;;;;53.70;30.60;;;;;;;0.58;83.35;101329.81;82600;1260;3026578;-73
2023/01/26 01:56:26;;;;;;;51.00;31.50;;;;;;;0.60;83.68;101327.64;83934;1259;3011431;-73
2023/01/26 01:58:59;;;;;;;57.50;33.50;;;;;;;0.63;83.42;101325.61;82582;1254;3026289;-73
2023/01/26 02:01:30;;;;;;;57.20;33.90;;;;;;;0.60;83.33;101324.36;83792;1260;3011596;-72
2023/01/26 02:04:03;;;;;;;60.00;34.60;;;;;;;0.59;83.66;101319.70;82567;1265;3026244;-72
2023/01/26 02:06:38;;;;;;;52.00;30.70;;;;;;;0.58;83.41;101319.02;83903;1259;3011454;-73
2023/01/26 02:10:17;;;;;;;52.20;32.30;;;;;;;0.57;83.62;101320.35;82546;1254;3026231;-73
2023/01/26 02:12:09;;;;;;;57.30;31.70;;;;;;;0.58;83.64;101320.73;82570;1265;3026410;-74
2023/01/26 02:14:40;;;;;;;54.60;32.60;;;;;;;0.60;83.55;101323.52;83879;1254;3011298;-73
2023/01/26 02:17:12;;;;;;;55.40;33.50;;;;;;;0.62;83.72;101322.68;82554;1254;3025731;-72
2023/01/26 02:19:49;;;;;;;57.30;33.50;;;;;;;0.66;83.62;101319.83;83868;1260;3011457;-74
2023/01/26 02:22:28;;;;;;;55.30;32.50;;;;;;;0.64;83.59;101316.19;82575;1254;3026321;-75
2023/01/26 02:25:04;;;;;;;54.30;31.60;;;;;;;0.63;83.71;101312.39;82542;1260;3025210;-73
2023/01/26 02:27:37;;;;;;;53.50;31.20;;;;;;;0.64;83.72;101307.94;83186;1260;3011570;-72
2023/01/26 02:30:11;;;;;;;54.40;32.00;;;;;;;0.66;83.55;101302.84;83873;1263;3011598;-72
2023/01/26 02:32:43;;;;;;;53.90;33.50;;;;;;;0.65;83.48;101303.16;82512;1269;3025126;-72
2023/01/26 02:35:15;;;;;;;53.30;32.60;;;;;;;0.67;83.62;101302.50;83893;1267;3011578;-72
2023/01/26 02:37:47;;;;;;;55.80;32.70;;;;;;;0.67;83.44;101301.81;82452;1262;3025319;-73
2023/01/26 02:40:29;;;;;;;53.60;32.80;;;;;;;0.64;83.51;101303.48;83894;1260;3011596;-72
2023/01/26 02:43:11;;;;;;;51.20;30.50;;;;;;;0.64;83.60;101296.61;82520;1270;3025296;-71
2023/01/26 02:45:46;;;;;;;52.30;31.70;;;;;;;0.63;83.60;101296.08;82556;1254;3026362;-72
2023/01/26 02:51:19;;;;;;;54.60;32.30;;;;;;;0.70;83.82;101296.55;82546;1264;3026225;-74
2023/01/26 02:53:52;;;;;;;55.60;33.60;;;;;;;0.70;83.65;101290.19;82574;1269;3026458;-74
2023/01/26 02:56:23;;;;;;;57.30;33.90;;;;;;;0.68;83.55;101284.66;83873;1263;3012774;-74
2023/01/26 02:58:58;;;;;;;55.10;33.10;;;;;;;0.66;83.46;101279.13;82539;1260;3026711;-74
2023/01/26 03:01:32;;;;;;;60.10;33.20;;;;;;;0.65;83.72;101276.21;83892;1263;3011443;-74
2023/01/26 03:04:05;;;;;;;53.50;32.30;;;;;;;0.68;83.74;101271.95;82552;1268;3025407;-74
2023/01/26 03:06:36;;;;;;;52.50;30.80;;;;;;;0.70;83.81;101265.63;83904;1260;3011184;-72
2023/01/26 03:09:09;;;;;;;55.20;32.70;;;;;;;0.71;83.70;101258.09;82436;1256;3025772;-73
2023/01/26 03:11:42;;;;;;;57.00;34.30;;;;;;;0.71;83.61;101257.74;83900;1268;3013811;-74
2023/01/26 03:14:16;;;;;;;56.40;33.70;;;;;;;0.69;83.69;101256.68;82534;1265;3026385;-74
2023/01/26 03:16:52;;;;;;;54.70;32.60;;;;;;;0.66;83.61;101257.68;83332;1260;3011569;-72
2023/01/26 03:27:59;;;;;;;53.20;32.70;;;;;;;0.71;84.19;101233.55;82393;1269;3025235;-75
2023/01/26 03:30:32;;;;;;;58.70;34.80;;;;;;;0.73;84.10;101226.89;83750;1262;3011571;-73
2023/01/26 03:33:09;;;;;;;56.80;33.50;;;;;;;0.74;84.10;101225.17;82422;1269;3026589;-73
2023/01/26 03:35:43;;;;;;;55.30;31.40;;;;;;;0.71;84.01;101228.40;82439;1261;3026610;-75
2023/01/26 03:38:17;;;;;;;49.40;31.70;;;;;;;0.71;83.98;101228.39;83175;1258;3011876;-73
2023/01/26 03:57:51;;;;;;;55.00;30.90;;;;;;;0.65;84.08;101211.63;82422;1258;3025510;-73
2023/01/26 04:00:23;;;;;;;55.40;32.00;;;;;;;0.64;84.02;101210.43;83748;1262;3011514;-73
2023/01/26 04:08:36;;;;;;;57.00;33.30;;;;;;;0.69;84.12;101204.31;82420;1268;3025733;-75
2023/01/26 04:11:07;;;;;;;54.20;32.60;;;;;;;0.69;84.24;101207.41;83763;1258;3011495;-74
2023/01/26 04:22:39;;;;;;;58.20;32.40;;;;;;;0.76;84.17;101200.14;82335;1264;3026290;-72
2023/01/26 04:25:14;;;;;;;57.30;33.70;;;;;;;0.77;84.23;101201.86;83181;1269;3011455;-72
2023/01/26 04:27:46;;;;;;;58.40;34.30;;;;;;;0.77;84.28;101204.61;83715;1260;3011703;-73
2023/01/26 04:30:19;;;;;;;59.20;33.10;;;;;;;0.77;84.37;101207.02;82419;1269;3025872;-72
2023/01/26 04:32:52;;;;;;;56.60;31.90;;;;;;;0.77;84.20;101206.49;83749;1268;3013683;-73
2023/01/26 04:35:25;;;;;;;51.20;30.70;;;;;;;0.77;84.31;101204.27;82458;1263;3026192;-72
2023/01/26 04:38:00;;;;;;;54.10;32.50;;;;;;;0.78;84.32;101203.08;83607;1264;3011560;-72
2023/01/26 04:40:37;;;;;;;56.10;33.40;;;;;;;0.80;84.21;101204.15;82432;1260;3026045;-73
2023/01/26 04:43:09;;;;;;;56.20;33.40;;;;;;;0.80;84.15;101199.67;82390;1260;3025562;-73
2023/01/26 04:45:42;;;;;;;58.00;33.80;;;;;;;0.81;84.10;101196.77;83775;1260;3011416;-73
2023/01/26 04:48:14;;;;;;;55.70;33.00;;;;;;;0.81;84.27;101199.70;82417;1258;3025747;-73
2023/01/26 04:50:45;;;;;;;53.10;31.10;;;;;;;0.80;84.13;101202.43;83744;1258;3011569;-72
2023/01/26 04:53:17;;;;;;;54.30;33.30;;;;;;;0.81;84.17;101201.92;82415;1257;3026045;-73
2023/01/26 04:55:48;;;;;;;56.20;32.60;;;;;;;0.80;84.08;101200.02;83744;1261;3011667;-73
2023/01/26 04:58:23;;;;;;;56.90;33.20;;;;;;;0.80;84.35;101200.88;82375;1268;3025705;-72
2023/01/26 05:00:54;;;;;;;59.90;34.90;;;;;;;0.80;84.24;101198.65;83770;1260;3011375;-74
2023/01/26 05:03:26;;;;;;;56.90;33.50;;;;;;;0.79;84.17;101197.60;82353;1260;3025115;-74
2023/01/26 05:05:58;;;;;;;58.30;33.20;;;;;;;0.79;84.29;101195.71;83730;1260;3012975;-74
2023/01/26 05:08:30;;;;;;;55.70;32.40;;;;;;;0.82;84.31;101197.80;82396;1256;3025529;-74
2023/01/26 05:11:01;;;;;;;53.10;31.70;;;;;;;0.82;84.15;101190.27;83761;1261;3011246;-74
2023/01/26 05:13:38;;;;;;;54.10;31.40;;;;;;;0.81;84.03;101186.29;82419;1258;3025933;-74
2023/01/26 05:16:13;;;;;;;56.60;32.90;;;;;;;0.81;84.12;101187.66;82413;1260;3026354;-75
2023/01/26 05:18:44;;;;;;;56.50;32.30;;;;;;;0.81;84.17;101191.96;83705;1260;3011826;-74
2023/01/26 05:21:16;;;;;;;58.20;32.80;;;;;;;0.81;84.12;101188.01;82415;1257;3026516;-74
2023/01/26 05:23:47;;;;;;;57.60;31.90;;;;;;;0.81;84.32;101180.11;83727;1257;3011637;-74
2023/01/26 05:26:19;;;;;;;54.60;32.20;;;;;;;0.82;84.22;101177.89;82457;1260;3026458;-74
2023/01/26 05:28:51;;;;;;;50.10;31.20;;;;;;;0.82;84.20;101178.41;83753;1257;3012872;-73
2023/01/26 05:31:23;;;;;;;52.80;32.40;;;;;;;0.82;84.11;101179.95;82433;1264;3025722;-73
2023/01/26 05:33:57;;;;;;;54.70;31.60;;;;;;;0.85;84.32;101180.36;83616;1256;3011599;-74
2023/01/26 05:36:32;;;;;;;56.30;32.60;;;;;;;0.87;84.25;101176.23;82440;1261;3026514;-72
2023/01/26 05:39:06;;;;;;;57.90;33.40;;;;;;;0.87;84.39;101178.14;82405;1258;3026703;-72
2023/01/26 05:41:43;;;;;;;57.80;33.00;;;;;;;0.85;84.24;101182.41;83750;1260;3012070;-74
2023/01/26 05:44:16;;;;;;;51.00;31.40;;;;;;;0.86;84.11;101182.77;82423;1264;3026094;-74
2023/01/26 05:46:47;;;;;;;51.00;30.70;;;;;;;0.84;84.13;101183.77;83743;1261;3011523;-73
2023/01/26 05:49:21;;;;;;;57.30;33.90;;;;;;;0.85;84.30;101183.27;82427;1258;3026344;-74
2023/01/26 05:52:02;;;;;;;58.50;34.00;;;;;;;0.89;84.43;101178.67;83630;1260;3011621;-75
2023/01/26 05:54:37;;;;;;;58.30;34.00;;;;;;;0.89;84.20;101182.13;82409;1258;3025556;-73
2023/01/26 05:57:15;;;;;;;58.70;33.50;;;;;;;0.87;84.13;101187.59;83123;1262;3012837;-73
2023/01/26 05:59:52;;;;;;;52.50;30.60;;;;;;;0.86;84.12;101189.45;82426;1261;3025864;-72
2023/01/26 06:02:29;;;;;;;57.70;32.90;;;;;;;0.85;84.20;101188.07;83288;1261;3011568;-73
2023/01/26 06:05:03;;;;;;;53.30;32.30;;;;;;;0.88;84.57;101193.43;82473;1260;3025368;-69
2023/01/26 06:07:37;;;;;;;60.70;33.70;;;;;;;0.89;84.51;101192.94;83678;1257;3011670;-71
2023/01/26 06:10:12;;;;;;;58.00;32.60;;;;;;;0.89;84.43;101188.66;82469;1271;3024646;-72
2023/01/26 06:12:47;;;;;;;56.40;31.10;;;;;;;0.90;84.44;101181.45;83214;1260;3011652;-73
2023/01/26 06:15:25;;;;;;;53.60;30.50;;;;;;;0.90;84.51;101179.39;83664;1258;3011405;-73
2023/01/26 06:18:03;;;;;;;52.30;30.30;;;;;;;0.93;84.52;101180.27;82458;1257;3026418;-71
2023/01/26 06:20:35;;;;;;;54.20;31.30;;;;;;;0.93;84.32;101175.48;82321;1265;3025993;-74
2023/01/26 06:23:10;;;;;;;54.50;31.60;;;;;;;0.92;84.28;101176.15;83723;1260;3011525;-72
2023/01/26 06:25:44;;;;;;;54.30;31.90;;;;;;;0.90;84.32;101175.45;82424;1260;3024783;-74
2023/01/26 06:28:23;;;;;;;55.90;32.80;;;;;;;0.93;84.41;101178.39;83748;1258;3011548;-74
2023/01/26 06:31:00;;;;;;;59.30;31.90;;;;;;;0.93;84.54;101173.77;82419;1258;3026416;-74
2023/01/26 06:33:35;;;;;;;52.00;31.00;;;;;;;0.91;84.43;101172.53;82346;1260;3025903;-74
2023/01/26 06:36:11;;;;;;;48.90;29.90;;;;;;;0.92;84.44;101173.23;83160;1258;3011543;-73
2023/01/26 06:38:48;;;;;;;48.20;28.30;;;;;;;0.95;84.54;101174.65;83197;1258;3013218;-74
2023/01/26 06:41:20;;;;;;;53.20;30.70;;;;;;;0.97;84.47;101177.08;82417;1261;3026440;-73
2023/01/26 06:43:51;;;;;;;56.10;32.40;;;;;;;0.98;84.36;101178.98;83629;1259;3013304;-74
2023/01/26 06:46:24;;;;;;;55.60;32.90;;;;;;;1.00;84.44;101174.21;82426;1268;3025893;-73
2023/01/26 06:48:55;;;;;;;53.20;29.20;;;;;;;1.01;84.48;101173.02;83735;1261;3011512;-72
2023/01/26 06:52:06;;;;;;;51.20;28.80;;;;;;;1.02;84.27;101168.20;82453;1256;3025800;-72
2023/01/26 06:54:44;;;;;;;49.10;28.00;;;;;;;1.01;84.22;101163.73;82373;1260;3025948;-73
2023/01/26 06:57:19;;;;;;;51.50;30.60;;;;;;;1.06;84.26;101163.63;82416;1257;3026458;-73
2023/01/26 06:59:50;;;;;;;50.90;29.50;;;;;;;1.09;84.23;101161.10;83759;1261;3011476;-73
2023/01/26 07:02:23;;;;;;;57.00;31.40;;;;;;;1.12;84.22;101164.90;82432;1261;3025979;-73
2023/01/26 07:04:56;;;;;;;59.60;31.90;;;;;;;1.13;84.16;101169.71;83770;1256;3011443;-72
2023/01/26 07:07:28;;;;;;;58.70;33.20;;;;;;;1.14;84.29;101168.04;82435;1260;3026079;-72
2023/01/26 07:10:02;;;;;;;57.80;33.00;;;;;;;1.14;84.10;101168.02;83701;1256;3011265;-71
2023/01/26 07:12:41;;;;;;;61.00;33.20;;;;;;;1.14;84.20;101168.03;82393;1260;3025983;-74
2023/01/26 07:15:13;;;;;;;61.50;34.50;;;;;;;1.13;83.96;101166.65;82447;1261;3025699;-73
2023/01/26 07:17:45;;;;;;;59.50;33.90;;;;;;;1.17;84.05;101169.09;83714;1261;3012539;-73
2023/01/26 07:20:17;;;;;;;58.80;33.20;;;;;;;1.21;84.20;101165.04;82418;1256;3025978;-72
2023/01/26 07:22:49;;;;;;;65.00;38.10;;;;;;;1.24;84.12;101159.92;83723;1261;3011351;-72
2023/01/26 07:25:29;;;;;;;67.00;35.90;;;;;;;1.27;84.07;101158.39;82421;1256;3025999;-72
2023/01/26 07:28:08;;;;;;;62.70;33.20;;;;;;;1.26;83.83;101158.39;82415;1256;3026146;-74
2023/01/26 07:30:41;;;;;;;63.10;34.00;;;;;;;1.26;83.70;101155.64;82418;1256;3026021;-72
2023/01/26 07:33:12;;;;;;;60.60;34.90;;;;;;;1.27;83.68;101155.13;83645;1257;3011353;-74
2023/01/26 07:35:47;;;;;;;60.30;33.70;;;;;;;1.29;83.59;101152.74;82432;1261;3025891;-73
2023/01/26 07:38:21;;;;;;;58.70;33.70;;;;;;;1.28;83.54;101149.14;83192;1257;3012714;-73
2023/01/26 07:40:52;;;;;;;61.40;34.80;;;;;;;1.28;83.38;101147.77;83290;1260;3013465;-73
2023/01/26 07:43:27;;;;;;;56.90;31.20;;;;;;;1.27;83.21;101139.15;82448;1258;3025736;-74
2023/01/26 07:45:58;;;;;;;57.30;30.80;;;;;;;1.27;83.20;101143.61;83791;1261;3013069;-71
2023/01/26 07:48:33;;;;;;;55.50;31.80;;;;;;;1.27;83.25;101145.16;82402;1261;3025952;-73
2023/01/26 07:51:07;;;;;;;54.90;32.00;;;;;;;1.30;83.20;101145.73;83730;1269;3011596;-73
2023/01/26 07:53:41;;;;;;;57.20;32.50;;;;;;;1.33;83.10;101145.05;82417;1261;3025777;-73
2023/01/26 07:56:13;;;;;;;56.50;31.70;;;;;;;1.37;82.97;101146.31;83716;1256;3011491;-74
2023/01/26 07:58:49;;;;;;;59.10;33.80;;;;;;;1.39;83.23;101148.42;82436;1256;3026504;-73
2023/01/26 08:01:22;;;;;;;53.30;30.20;;;;;;;1.42;83.12;101153.08;82355;1264;3025668;-74
2023/01/26 08:03:54;;;;;;;53.30;29.80;;;;;;;1.43;83.03;101149.84;83737;1261;3011591;-73
2023/01/26 08:06:27;;;;;;;52.70;29.40;;;;;;;1.46;82.90;101149.17;82471;1261;3026893;-73
2023/01/26 08:08:58;;;;;;;56.20;30.40;;;;;;;1.47;82.78;101152.29;83664;1256;3011269;-72
2023/01/26 08:11:31;;;;;;;55.60;31.10;;;;;;;1.50;82.65;101150.44;82420;1261;3025775;-73
2023/01/26 08:14:02;;;;;;;54.50;31.00;;;;;;;1.53;82.72;101147.39;83594;1257;3011528;-71
2023/01/26 08:16:35;;;;;;;49.60;28.30;;;;;;;1.54;82.68;101146.70;82341;1261;3026496;-72
2023/01/26 08:19:09;;;;;;;48.80;27.20;;;;;;;1.57;82.44;101147.58;83690;1258;3011598;-72
2023/01/26 08:21:47;;;;;;;50.40;28.70;;;;;;;1.62;82.41;101147.11;82421;1257;3026163;-73
2023/01/26 08:24:19;;;;;;;50.10;28.70;;;;;;;1.68;82.40;101145.65;82436;1257;3026236;-73
2023/01/26 08:26:53;;;;;;;43.60;26.10;;;;;;;1.72;82.28;101143.45;83737;1256;3011560;-72
2023/01/26 08:29:26;;;;;;;49.10;28.10;;;;;;;1.74;82.23;101143.99;82430;1256;3025928;-72
2023/01/26 08:31:57;;;;;;;49.50;26.10;;;;;;;1.73;81.41;101139.16;83624;1258;3011359;-74
2023/01/26 08:34:37;;;;;;;46.00;25.60;;;;;;;1.73;81.91;101138.30;82430;1256;3025739;-74
2023/01/26 08:37:09;;;;;;;42.90;23.90;;;;;;;1.75;81.93;101132.80;82385;1256;3025149;-73
2023/01/26 08:39:42;;;;;;;44.40;26.30;;;;;;;1.81;81.90;101128.73;83689;1260;3013137;-73
2023/01/26 08:42:15;;;;;;;45.60;26.50;;;;;;;1.84;81.73;101134.11;82324;1263;3026045;-74
2023/01/26 08:44:47;;;;;;;45.30;26.30;;;;;;;1.91;81.90;101140.53;83728;1256;3013633;-72
2023/01/26 08:47:20;;;;;;;41.60;25.60;;;;;;;1.95;81.62;101145.91;82380;1258;3025435;-73
2023/01/26 08:49:51;;;;;;;43.30;26.00;;;;;;;1.96;81.23;101141.29;83768;1260;3011582;-74
2023/01/26 08:52:28;;;;;;;44.70;24.80;;;;;;;1.97;81.41;101142.67;82350;1261;3025695;-73
2023/01/26 08:55:08;;;;;;;41.60;23.50;;;;;;;2.02;81.43;101142.89;82383;1260;3025858;-72
2023/01/26 08:57:40;;;;;;;38.50;23.60;;;;;;;2.06;81.22;101144.13;82356;1256;3025681;-71
2023/01/26 09:00:26;;;;;;;40.20;24.60;;;;;;;2.11;81.23;101147.08;82362;1258;3026236;-74
2023/01/26 09:03:01;;;;;;;41.40;24.50;;;;;;;2.16;81.42;101153.84;82353;1258;3026215;-74
2023/01/26 09:05:38;;;;;;;41.00;23.80;;;;;;;2.19;81.00;101151.64;83649;1256;3011588;-73
2023/01/26 09:08:10;;;;;;;39.80;24.50;;;;;;;2.20;80.36;101152.52;82433;1260;3026792;-74
2023/01/26 09:10:47;;;;;;;38.00;23.20;;;;;;;2.19;80.20;101161.11;83709;1260;3011594;-73
2023/01/26 09:13:20;;;;;;;40.20;23.00;;;;;;;2.17;79.76;101162.81;82433;1258;3025997;-74
2023/01/26 09:15:53;;;;;;;34.10;19.90;;;;;;;2.16;79.71;101163.48;83737;1261;3011223;-73
2023/01/26 09:18:28;;;;;;;31.50;20.20;;;;;;;2.16;79.72;101165.55;82306;1256;3026331;-73
2023/01/26 09:21:12;;;;;;;32.80;20.30;;;;;;;2.19;79.53;101165.08;83189;1256;3011604;-72
2023/01/26 09:23:50;;;;;;;34.00;20.50;;;;;;;2.19;79.24;101159.55;82405;1260;3026866;-71
2023/01/26 09:26:23;;;;;;;32.60;20.80;;;;;;;2.19;78.94;101161.11;82334;1259;3025033;-73
2023/01/26 09:28:55;;;;;;;32.70;20.80;;;;;;;2.20;78.91;101163.02;83703;1256;3011416;-73
2023/01/26 09:31:29;;;;;;;32.90;19.90;;;;;;;2.16;78.28;101157.47;82365;1258;3025720;-70
2023/01/26 09:34:02;;;;;;;30.60;19.20;;;;;;;2.13;78.56;101156.92;83729;1256;3011583;-71
2023/01/26 09:36:34;;;;;;;29.50;18.10;;;;;;;2.15;78.60;101153.16;82452;1256;3026359;-72
2023/01/26 09:39:06;;;;;;;29.60;18.70;;;;;;;2.16;77.91;101153.34;83666;1261;3012810;-72
2023/01/26 09:41:55;;;;;;;29.30;18.10;;;;;;;2.15;77.81;101145.92;82427;1260;3027098;-74
2023/01/26 09:44:30;;;;;;;27.70;18.20;;;;;;;2.14;77.26;101142.13;82415;1256;3026046;-72
2023/01/26 09:47:07;;;;;;;26.20;17.60;;;;;;;2.10;77.17;101137.61;83210;1260;3011594;-72
2023/01/26 09:49:48;;;;;;;27.30;17.40;;;;;;;2.10;76.82;101147.26;83210;1256;3011502;-71
2023/01/26 09:52:30;;;;;;;29.90;17.70;;;;;;;2.04;76.79;101146.17;82420;1256;3025447;-72
2023/01/26 09:55:05;;;;;;;25.00;15.80;;;;;;;2.03;76.94;101143.41;82457;1260;3026191;-72
2023/01/26 09:57:44;;;;;;;23.40;16.00;;;;;;;2.04;77.16;101141.36;82427;1260;3025674;-70
2023/01/26 10:00:25;;;;;;;25.30;17.00;;;;;;;2.10;77.33;101133.31;82425;1260;3026225;-73
2023/01/26 10:03:17;;;;;;;28.70;16.10;;;;;;;2.13;76.88;101130.59;82384;1256;3025868;-71
2023/01/26 10:05:53;;;;;;;24.90;16.30;;;;;;;2.10;76.20;101127.47;82340;1262;3027236;-71
2023/01/26 10:08:30;;;;;;;25.40;16.70;;;;;;;2.12;76.75;101123.88;82388;1257;3025803;-71
2023/01/26 10:11:07;;;;;;;26.20;17.20;;;;;;;2.14;76.54;101119.08;82475;1258;3027397;-73
2023/01/26 10:13:39;;;;;;;24.50;16.50;;;;;;;2.16;76.75;101116.50;82390;1256;3025596;-72
2023/01/26 10:16:14;;;;;;;27.50;16.30;;;;;;;2.19;76.04;101114.61;83752;1260;3011938;-73
2023/01/26 10:18:53;;;;;;;24.00;15.90;;;;;;;2.19;76.31;101120.14;82335;1259;3026280;-72
2023/01/26 10:21:28;;;;;;;24.60;15.20;;;;;;;2.25;76.55;101116.05;82431;1260;3027340;-71
2023/01/26 10:24:02;;;;;;;23.70;15.90;;;;;;;2.30;76.73;101115.23;83172;1260;3011913;-72
2023/01/26 10:26:37;;;;;;;22.10;15.90;;;;;;;2.35;76.20;101104.25;83695;1261;3011548;-73
2023/01/26 10:29:15;;;;;;;25.50;16.70;;;;;;;2.34;75.43;101100.98;82410;1256;3026324;-73
2023/01/26 10:31:49;;;;;;;24.00;16.20;;;;;;;2.30;74.52;101097.50;82437;1256;3025947;-74
2023/01/26 10:34:24;;;;;;;25.90;16.40;;;;;;;2.24;75.05;101098.48;83740;1256;3013254;-73
2023/01/26 10:37:01;;;;;;;26.40;16.10;;;;;;;2.23;75.33;101092.45;82444;1256;3026055;-72
2023/01/26 10:39:38;;;;;;;23.10;16.20;;;;;;;2.21;75.06;101094.69;82411;1256;3025746;-73
2023/01/26 10:42:11;;;;;;;23.10;15.00;;;;;;;2.18;74.94;101093.45;82311;1260;3025364;-73
2023/01/26 10:44:42;;;;;;;22.30;15.10;;;;;;;2.17;74.96;101088.11;83722;1256;3011296;-74
2023/01/26 10:47:17;;;;;;;26.30;16.00;;;;;;;2.17;75.34;101087.77;82416;1256;3026179;-73
2023/01/26 10:49:51;;;;;;;23.60;15.40;;;;;;;2.20;75.19;101083.30;83107;1261;3012974;-72
2023/01/26 10:52:28;;;;;;;23.50;16.00;;;;;;;2.21;75.03;101082.46;83167;1261;3011525;-71
2023/01/26 10:55:19;;;;;;;24.60;15.60;;;;;;;2.22;75.09;101074.91;83726;1260;3011328;-72
2023/01/26 10:57:51;;;;;;;25.20;16.20;;;;;;;2.26;75.20;101070.61;82400;1257;3026251;-71
2023/01/26 11:00:30;;;;;;;23.70;15.90;;;;;;;2.27;74.27;101064.77;83753;1256;3011842;-71
2023/01/26 11:03:18;;;;;;;24.00;15.60;;;;;;;2.23;74.29;101060.60;82442;1256;3026371;-70
2023/01/26 11:06:05;;;;;;;22.00;14.80;;;;;;;2.20;74.36;101061.11;82446;1256;3026451;-72
2023/01/26 11:08:43;;;;;;;22.20;15.40;;;;;;;2.23;74.24;101055.98;82419;1256;3026369;-72
2023/01/26 11:11:26;;;;;;;20.70;14.10;;;;;;;2.28;74.44;101054.11;83207;1258;3011472;-71
2023/01/26 11:14:16;;;;;;;22.30;14.80;;;;;;;2.33;74.26;101055.01;82342;1257;3026975;-70
2023/01/26 11:16:53;;;;;;;23.20;14.50;;;;;;;2.34;73.47;101054.16;82403;1256;3026367;-73
2023/01/26 11:19:47;;;;;;;23.10;15.40;;;;;;;2.33;73.61;101045.19;82413;1260;3025722;-72
2023/01/26 11:22:22;;;;;;;21.30;14.70;;;;;;;2.35;74.22;101039.34;82427;1256;3025851;-72
2023/01/26 11:25:00;;;;;;;23.00;15.60;;;;;;;2.37;74.11;101036.95;83197;1256;3011575;-72
2023/01/26 11:27:41;;;;;;;21.20;15.50;;;;;;;2.39;74.68;101031.10;82424;1256;3025751;-73
2023/01/26 11:30:39;;;;;;;22.40;15.90;;;;;;;2.45;74.51;101029.40;82441;1260;3025843;-70
2023/01/26 11:33:20;;;;;;;23.50;15.80;;;;;;;2.48;74.50;101027.89;82457;1261;3026364;-69
2023/01/26 11:36:00;;;;;;;20.60;14.30;;;;;;;2.49;73.95;101027.20;82424;1260;3025681;-71
2023/01/26 11:38:39;;;;;;;20.60;15.00;;;;;;;2.49;73.36;101025.83;82394;1260;3027925;-71
2023/01/26 11:41:26;;;;;;;21.40;14.80;;;;;;;2.51;73.79;101029.10;82447;1256;3026215;-72
2023/01/26 11:44:40;;;;;;;21.00;15.10;;;;;;;2.53;72.90;101027.05;82419;1256;3025932;-70
2023/01/26 11:47:26;;;;;;;22.30;15.40;;;;;;;2.47;73.03;101023.05;82337;1262;3026661;-72
2023/01/26 11:50:22;;;;;;;21.60;15.20;;;;;;;2.47;73.29;101020.98;82457;1256;3026122;-73
2023/01/26 11:53:29;;;;;;;24.50;16.30;;;;;;;2.48;73.52;101014.27;82433;1256;3025556;-73
2023/01/26 11:56:19;;;;;;;21.70;15.60;;;;;;;2.46;73.44;101011.85;82376;1257;3026204;-71
2023/01/26 11:58:55;;;;;;;23.80;15.50;;;;;;;2.46;73.29;101010.13;82457;1256;3026563;-70
2023/01/26 12:01:29;;;;;;;22.30;14.90;;;;;;;2.45;73.14;101011.17;82454;1260;3025732;-72
2023/01/26 12:04:05;;;;;;;20.20;14.30;;;;;;;2.43;72.94;101006.84;83758;1258;3011579;-71
2023/01/26 12:06:39;;;;;;;20.80;14.70;;;;;;;2.43;73.30;101005.64;82432;1256;3027109;-73
2023/01/26 12:09:18;;;;;;;20.00;14.20;;;;;;;2.42;72.82;101002.20;83201;1256;3011609;-72
2023/01/26 12:11:54;;;;;;;;;;;;;;;2.38;72.37;101002.17;82444;1257;3025528;-72
2023/01/26 12:14:29;;;;;;;22.50;15.20;;;;;;;2.31;72.66;101002.30;83190;1256;3011816;-72
2023/01/26 12:17:24;;;;;;;21.00;14.80;;;;;;;2.31;72.82;101003.34;83088;1264;3011596;-73
2023/01/26 12:20:03;;;;;;;23.60;15.40;;;;;;;2.27;73.20;101003.15;82422;1256;3026365;-75
2023/01/26 12:22:38;;;;;;;23.60;16.00;;;;;;;2.28;73.24;101002.46;82424;1256;3026817;-74